createdAt,value
2018-08-14T00:00:38.173Z,4.87
2018-08-14T00:03:14.276Z,4.00
2018-08-14T00:05:43.959Z,4.30
2018-08-14T00:08:14.168Z,4.20
2018-08-14T00:10:46.022Z,4.77
2018-08-14T00:13:16.088Z,4.27
2018-08-14T00:15:47.213Z,5.13
2018-08-14T00:18:16.732Z,4.50
2018-08-14T00:20:46.228Z,4.87
2018-08-14T00:23:15.675Z,4.47
2018-08-14T00:25:45.067Z,4.90
2018-08-14T00:28:14.480Z,5.00
2018-08-14T00:30:43.955Z,5.20
2018-08-14T00:33:13.427Z,5.10
2018-08-14T00:35:42.892Z,4.80
2018-08-14T00:38:12.272Z,5.00
2018-08-14T00:40:41.725Z,4.83
2018-08-14T00:43:11.444Z,5.17
2018-08-14T00:45:40.852Z,5.03
2018-08-14T00:48:10.492Z,5.27
2018-08-14T00:50:40.004Z,4.90
2018-08-14T00:53:09.572Z,5.33
2018-08-14T00:55:38.940Z,4.73
2018-08-14T00:58:08.466Z,5.13
2018-08-14T01:00:37.917Z,5.37
2018-08-14T01:03:09.548Z,4.57
2018-08-14T01:05:39.006Z,5.70
2018-08-14T01:08:08.890Z,4.90
2018-08-14T01:10:38.453Z,4.50
2018-08-14T01:13:08.101Z,5.27
2018-08-14T01:15:38.378Z,4.30
2018-08-14T01:18:07.866Z,5.33
2018-08-14T01:20:41.436Z,5.10
2018-08-14T01:23:10.936Z,4.93
2018-08-14T01:25:40.324Z,5.30
2018-08-14T01:28:09.724Z,5.10
2018-08-14T01:30:39.172Z,5.27
2018-08-14T01:33:08.549Z,4.77
2018-08-14T01:35:37.954Z,5.20
2018-08-14T01:38:07.357Z,4.53
2018-08-14T01:40:37.557Z,4.80
2018-08-14T01:43:07.036Z,4.90
2018-08-14T01:45:36.436Z,5.00
2018-08-14T01:48:06.348Z,4.43
2018-08-14T01:50:35.777Z,4.73
2018-08-14T01:53:05.304Z,5.23
2018-08-14T01:55:34.693Z,4.27
2018-08-14T01:58:04.132Z,4.33
2018-08-14T02:00:33.669Z,4.03
2018-08-14T02:03:03.036Z,3.63
2018-08-14T02:05:32.389Z,3.70
2018-08-14T02:08:01.822Z,3.73
2018-08-14T02:10:31.280Z,4.03
2018-08-14T02:13:00.659Z,3.83
2018-08-14T02:15:30.816Z,3.47
2018-08-14T02:18:00.241Z,3.50
2018-08-14T02:20:30.120Z,3.40
2018-08-14T02:22:59.523Z,3.07
2018-08-14T02:25:28.934Z,2.03
2018-08-14T02:27:58.357Z,1.97
2018-08-14T02:30:27.796Z,2.40
2018-08-14T02:32:57.179Z,2.50
2018-08-14T02:35:26.555Z,2.40
2018-08-14T02:37:55.955Z,1.77
2018-08-14T02:40:25.493Z,1.90
2018-08-14T02:42:54.953Z,2.00
2018-08-14T02:45:24.406Z,1.93
2018-08-14T02:47:53.841Z,2.20
2018-08-14T02:50:23.316Z,2.20
2018-08-14T02:52:52.780Z,1.93
2018-08-14T02:55:23.747Z,2.50
2018-08-14T02:57:53.217Z,2.00
2018-08-14T03:00:25.027Z,1.80
2018-08-14T03:02:54.488Z,2.10
2018-08-14T03:05:23.876Z,1.83
2018-08-14T03:07:53.332Z,1.90
2018-08-14T03:10:22.853Z,1.57
2018-08-14T03:12:52.289Z,1.50
2018-08-14T03:15:23.173Z,1.80
2018-08-14T03:17:55.033Z,1.50
2018-08-14T03:20:24.686Z,1.70
2018-08-14T03:22:54.510Z,1.40
2018-08-14T03:25:23.965Z,1.20
2018-08-14T03:27:53.369Z,1.40
2018-08-14T03:30:22.921Z,1.30
2018-08-14T03:32:52.424Z,1.43
2018-08-14T03:35:21.856Z,1.30
2018-08-14T03:37:51.232Z,1.30
2018-08-14T03:40:20.884Z,1.43
2018-08-14T03:42:50.695Z,1.60
2018-08-14T03:45:20.106Z,1.23
2018-08-14T03:47:49.484Z,1.60
2018-08-14T03:50:19.800Z,1.73
2018-08-14T03:52:49.184Z,2.23
2018-08-14T03:55:19.827Z,1.53
2018-08-14T03:57:49.369Z,1.70
2018-08-14T04:00:19.644Z,1.90
2018-08-14T04:02:49.015Z,1.70
2018-08-14T04:05:18.375Z,1.70
2018-08-14T04:07:47.915Z,1.90
2018-08-14T04:10:17.519Z,1.63
2018-08-14T04:12:47.114Z,1.50
2018-08-14T04:15:16.749Z,1.40
2018-08-14T04:17:46.352Z,1.20
2018-08-14T04:20:17.137Z,1.40
2018-08-14T04:22:47.546Z,1.50
2018-08-14T04:25:17.089Z,1.70
2018-08-14T04:27:47.734Z,1.70
2018-08-14T04:30:17.392Z,1.37
2018-08-14T04:32:46.996Z,1.20
2018-08-14T04:35:16.627Z,1.33
2018-08-14T04:37:46.627Z,1.60
2018-08-14T04:40:16.409Z,1.40
2018-08-14T04:42:46.011Z,1.30
2018-08-14T04:45:15.649Z,1.43
2018-08-14T04:47:45.414Z,1.60
2018-08-14T04:50:16.590Z,1.40
2018-08-14T04:52:46.151Z,1.50
2018-08-14T04:55:15.842Z,1.47
2018-08-14T04:57:45.409Z,1.40
2018-08-14T05:00:16.584Z,1.70
2018-08-14T05:02:46.807Z,1.40
2018-08-14T05:05:16.815Z,1.40
2018-08-14T05:07:46.492Z,1.57
2018-08-14T05:10:16.867Z,1.40
2018-08-14T05:12:46.603Z,1.20
2018-08-14T05:15:16.342Z,1.40
2018-08-14T05:17:45.963Z,1.27
2018-08-14T05:20:16.339Z,1.73
2018-08-14T05:22:46.022Z,1.43
2018-08-14T05:25:15.723Z,1.57
2018-08-14T05:27:45.333Z,1.47
2018-08-14T05:30:17.519Z,1.57
2018-08-14T05:32:47.990Z,1.57
2018-08-14T05:35:17.779Z,1.40
2018-08-14T05:37:47.410Z,1.77
2018-08-14T05:40:17.132Z,1.70
2018-08-14T05:42:46.719Z,1.70
2018-08-14T05:45:16.791Z,1.53
2018-08-14T05:47:46.495Z,1.47
2018-08-14T05:50:19.137Z,1.70
2018-08-14T05:52:49.004Z,1.50
2018-08-14T05:55:18.475Z,1.67
2018-08-14T05:57:48.056Z,1.87
2018-08-14T06:00:19.696Z,1.53
2018-08-14T06:02:49.220Z,1.57
2018-08-14T06:05:18.936Z,2.00
2018-08-14T06:07:48.614Z,1.50
2018-08-14T06:10:18.212Z,1.70
2018-08-14T06:12:47.881Z,1.60
2018-08-14T06:15:17.570Z,1.80
2018-08-14T06:17:47.096Z,1.60
2018-08-14T06:20:16.979Z,1.70
2018-08-14T06:22:46.641Z,1.63
2018-08-14T06:25:16.704Z,1.57
2018-08-14T06:27:46.335Z,1.60
2018-08-14T06:30:18.748Z,1.70
2018-08-14T06:32:50.538Z,1.43
2018-08-14T06:35:20.281Z,1.00
2018-08-14T06:37:49.993Z,1.40
2018-08-14T06:40:19.719Z,1.23
2018-08-14T06:42:49.425Z,1.17
2018-08-14T06:45:19.585Z,1.30
2018-08-14T06:47:49.475Z,1.30
2018-08-14T06:50:21.180Z,1.47
2018-08-14T06:52:51.499Z,1.40
2018-08-14T06:55:21.235Z,1.30
2018-08-14T06:57:50.854Z,1.33
2018-08-14T07:00:21.521Z,1.80
2018-08-14T07:02:51.297Z,1.20
2018-08-14T07:05:21.006Z,1.50
2018-08-14T07:07:50.637Z,1.47
2018-08-14T07:10:21.338Z,1.27
2018-08-14T07:12:51.002Z,1.47
2018-08-14T07:15:22.846Z,1.23
2018-08-14T07:17:53.229Z,1.40
2018-08-14T07:20:22.944Z,1.30
2018-08-14T07:22:52.794Z,0.90
2018-08-14T07:25:22.827Z,1.20
2018-08-14T07:27:52.506Z,1.07
2018-08-14T07:30:25.409Z,1.20
2018-08-14T07:32:55.679Z,1.30
2018-08-14T07:35:25.259Z,1.00
2018-08-14T07:37:54.814Z,1.00
2018-08-14T07:40:24.632Z,1.20
2018-08-14T07:42:54.173Z,1.30
2018-08-14T07:45:23.784Z,1.00
2018-08-14T07:47:53.458Z,1.20
2018-08-14T07:50:23.578Z,1.23
2018-08-14T07:52:53.175Z,1.20
2018-08-14T07:55:22.907Z,1.13
2018-08-14T07:57:52.809Z,1.30
2018-08-14T08:00:23.188Z,1.30
2018-08-14T08:02:53.489Z,1.20
2018-08-14T08:05:23.492Z,1.50
2018-08-14T08:07:53.066Z,1.80
2018-08-14T08:10:22.690Z,1.87
2018-08-14T08:12:52.339Z,1.77
2018-08-14T08:15:22.084Z,1.90
2018-08-14T08:17:51.816Z,1.60
2018-08-14T08:20:27.692Z,1.73
2018-08-14T08:22:57.656Z,1.37
2018-08-14T08:25:28.179Z,1.30
2018-08-14T08:27:58.893Z,1.60
2018-08-14T08:30:29.598Z,1.30
2018-08-14T08:32:59.250Z,1.23
2018-08-14T08:35:30.899Z,1.23
2018-08-14T08:38:00.699Z,1.40
2018-08-14T08:40:30.585Z,1.50
2018-08-14T08:43:00.245Z,1.43
2018-08-14T08:45:29.920Z,1.43
2018-08-14T08:48:10.126Z,1.33
2018-08-14T08:50:39.842Z,1.20
2018-08-14T08:53:09.654Z,1.43
2018-08-14T08:55:39.228Z,1.30
2018-08-14T08:58:08.961Z,1.57
2018-08-14T09:00:38.767Z,1.70
2018-08-14T09:03:08.493Z,1.80
2018-08-14T09:05:38.281Z,1.60
2018-08-14T09:08:11.788Z,1.60
2018-08-14T09:10:41.910Z,1.80
2018-08-14T09:13:13.128Z,2.10
2018-08-14T09:15:42.801Z,2.07
2018-08-14T09:18:12.401Z,2.20
2018-08-14T09:20:42.321Z,1.83
2018-08-14T09:23:12.023Z,2.20
2018-08-14T09:25:41.601Z,1.70
2018-08-14T09:28:11.243Z,1.50
2018-08-14T09:30:41.959Z,2.17
2018-08-14T09:33:11.541Z,1.63
2018-08-14T09:35:41.296Z,2.00
2018-08-14T09:38:10.995Z,2.20
2018-08-14T09:40:49.172Z,2.00
2018-08-14T09:43:19.254Z,1.80
2018-08-14T09:45:50.405Z,2.07
2018-08-14T09:48:20.202Z,2.33
2018-08-14T09:50:50.796Z,2.20
2018-08-14T09:53:20.532Z,2.47
2018-08-14T09:55:50.173Z,1.80
2018-08-14T09:58:19.827Z,2.10
2018-08-14T10:00:54.480Z,1.37
2018-08-14T10:03:29.184Z,1.00
2018-08-14T10:06:03.882Z,1.00
2018-08-14T10:08:33.569Z,1.10
2018-08-14T10:11:03.422Z,1.00
2018-08-14T10:13:33.027Z,0.90
2018-08-14T10:16:02.716Z,1.10
2018-08-14T10:18:33.713Z,0.97
2018-08-14T10:21:04.748Z,0.80
2018-08-14T10:23:34.361Z,1.00
2018-08-14T10:26:05.073Z,1.10
2018-08-14T10:28:36.731Z,0.73
2018-08-14T10:31:07.707Z,1.03
2018-08-14T10:33:40.812Z,0.73
2018-08-14T10:36:10.655Z,1.00
2018-08-14T10:38:40.301Z,0.90
2018-08-14T10:41:09.949Z,0.60
2018-08-14T10:43:39.679Z,0.70
2018-08-14T10:46:09.379Z,0.90
2018-08-14T10:48:39.172Z,0.77
2018-08-14T10:51:11.382Z,0.97
2018-08-14T10:53:41.025Z,0.90
2018-08-14T10:56:10.745Z,0.80
2018-08-14T10:58:40.477Z,0.83
2018-08-14T11:01:10.143Z,0.80
2018-08-14T11:03:39.713Z,0.80
2018-08-14T11:06:09.361Z,0.70
2018-08-14T11:08:39.201Z,0.67
2018-08-14T11:11:13.485Z,0.78
2018-08-14T11:13:43.067Z,0.77
2018-08-14T11:16:12.614Z,0.80
2018-08-14T11:18:42.287Z,0.80
2018-08-14T11:21:12.107Z,0.70
2018-08-14T11:23:41.731Z,0.62
2018-08-14T11:26:11.332Z,0.70
2018-08-14T11:28:40.907Z,0.80
2018-08-14T11:31:10.628Z,0.72
2018-08-14T11:33:40.201Z,0.90
2018-08-14T11:36:12.284Z,0.67
2018-08-14T11:38:42.082Z,0.80
2018-08-14T11:41:11.750Z,1.20
2018-08-14T11:43:41.393Z,0.90
2018-08-14T11:46:11.036Z,0.77
2018-08-14T11:48:40.564Z,0.97
2018-08-14T11:51:12.581Z,0.70
2018-08-14T11:53:42.192Z,0.60
2018-08-14T11:56:11.887Z,0.73
2018-08-14T11:58:41.569Z,0.60
2018-08-14T12:01:11.401Z,0.70
2018-08-14T12:03:41.472Z,0.70
2018-08-14T12:06:11.026Z,0.87
2018-08-14T12:08:40.588Z,0.80
2018-08-14T12:11:12.519Z,0.77
2018-08-14T12:13:42.173Z,0.60
2018-08-14T12:16:11.779Z,0.80
2018-08-14T12:18:41.420Z,0.95
2018-08-14T12:21:11.055Z,0.80
2018-08-14T12:23:41.116Z,0.65
2018-08-14T12:26:10.835Z,0.60
2018-08-14T12:28:40.429Z,0.70
2018-08-14T12:31:10.269Z,0.50
2018-08-14T12:33:39.885Z,0.60
2018-08-14T12:36:09.797Z,0.60
2018-08-14T12:38:39.343Z,0.50
2018-08-14T12:41:09.066Z,0.60
2018-08-14T12:43:38.680Z,0.70
2018-08-14T12:46:08.503Z,0.62
2018-08-14T12:48:38.034Z,0.60
2018-08-14T12:51:07.670Z,0.50
2018-08-14T12:53:37.484Z,0.53
2018-08-14T12:56:07.362Z,0.60
2018-08-14T12:58:37.057Z,0.65
2018-08-14T13:01:06.782Z,0.68
2018-08-14T13:03:36.424Z,0.57
2018-08-14T13:06:06.066Z,0.82
2018-08-14T13:08:35.722Z,0.70
2018-08-14T13:11:05.439Z,0.42
2018-08-14T13:13:36.455Z,0.80
2018-08-14T13:16:06.172Z,0.70
2018-08-14T13:18:35.798Z,0.50
2018-08-14T13:21:05.571Z,0.40
2018-08-14T13:23:35.434Z,0.98
2018-08-14T13:26:05.082Z,0.70
2018-08-14T13:28:35.314Z,0.70
2018-08-14T13:31:04.913Z,0.70
2018-08-14T13:33:34.536Z,0.70
2018-08-14T13:36:04.048Z,0.78
2018-08-14T13:38:33.655Z,0.70
2018-08-14T13:41:03.451Z,0.55
2018-08-14T13:43:33.377Z,0.72
2018-08-14T13:46:02.980Z,0.60
2018-08-14T13:48:33.332Z,0.50
2018-08-14T13:51:02.895Z,0.80
2018-08-14T13:53:32.509Z,0.70
2018-08-14T13:56:02.154Z,0.60
2018-08-14T13:58:31.701Z,0.55
2018-08-14T14:01:02.576Z,0.45
2018-08-14T14:03:32.320Z,0.68
2018-08-14T14:06:02.248Z,0.50
2018-08-14T14:08:32.537Z,0.40
2018-08-14T14:11:02.178Z,0.42
2018-08-14T14:13:31.746Z,0.60
2018-08-14T14:16:01.473Z,0.40
2018-08-14T14:18:34.778Z,0.40
2018-08-14T14:21:04.794Z,0.42
2018-08-14T14:23:34.548Z,0.35
2018-08-14T14:26:04.372Z,0.45
2018-08-14T14:28:33.969Z,0.50
2018-08-14T14:31:03.926Z,0.65
2018-08-14T14:33:33.554Z,0.60
2018-08-14T14:36:03.245Z,0.60
2018-08-14T14:38:32.873Z,0.40
2018-08-14T14:41:02.739Z,0.88
2018-08-14T14:43:32.367Z,0.60
2018-08-14T14:46:01.970Z,0.82
2018-08-14T14:48:31.632Z,0.57
2018-08-14T14:51:01.831Z,0.70
2018-08-14T14:53:31.372Z,0.60
2018-08-14T14:56:01.211Z,0.75
2018-08-14T14:58:30.818Z,0.72
2018-08-14T15:01:00.605Z,0.70
2018-08-14T15:03:30.695Z,0.60
2018-08-14T15:06:00.301Z,0.57
2018-08-14T15:08:29.944Z,0.60
2018-08-14T15:10:59.584Z,1.40
2018-08-14T15:13:29.218Z,1.30
2018-08-14T15:16:00.154Z,0.70
2018-08-14T15:18:30.019Z,0.47
2018-08-14T15:20:59.633Z,0.72
2018-08-14T15:23:29.476Z,0.70
2018-08-14T15:25:59.090Z,0.63
2018-08-14T15:29:04.887Z,0.57
2018-08-14T15:31:35.971Z,0.60
2018-08-14T15:34:07.188Z,0.77
2018-08-14T15:36:36.811Z,0.80
2018-08-14T15:39:10.360Z,0.80
2018-08-14T15:41:40.396Z,0.70
2018-08-14T15:44:10.639Z,0.72
2018-08-14T15:46:40.356Z,0.50
2018-08-14T15:49:10.828Z,0.53
2018-08-14T15:51:40.760Z,0.50
2018-08-14T15:54:11.507Z,0.42
2018-08-14T15:56:41.551Z,0.88
2018-08-14T15:59:11.493Z,0.57
2018-08-14T16:01:41.191Z,0.70
2018-08-14T16:04:12.963Z,0.72
2018-08-14T16:06:42.742Z,0.78
2018-08-14T16:09:16.988Z,0.62
2018-08-14T16:11:47.509Z,0.78
2018-08-14T16:14:17.243Z,0.90
2018-08-14T16:16:46.853Z,0.60
2018-08-14T16:19:17.393Z,0.80
2018-08-14T16:21:47.181Z,0.90
2018-08-14T16:24:18.726Z,0.80
2018-08-14T16:26:48.446Z,0.60
2018-08-14T16:29:18.164Z,0.70
2018-08-14T16:31:47.850Z,0.60
2018-08-14T16:34:18.189Z,0.70
2018-08-14T16:36:47.736Z,0.90
2018-08-14T16:39:17.570Z,0.80
2018-08-14T16:41:47.284Z,0.73
2018-08-14T16:44:17.009Z,0.77
2018-08-14T16:46:46.638Z,0.80
2018-08-14T16:49:16.477Z,0.83
2018-08-14T16:51:46.208Z,0.90
2018-08-14T16:54:15.809Z,0.63
2018-08-14T16:56:45.783Z,0.67
2018-08-14T16:59:15.540Z,0.60
2018-08-14T17:01:45.202Z,0.90
2018-08-14T17:04:15.120Z,0.80
2018-08-14T17:06:44.885Z,0.80
2018-08-14T17:09:14.625Z,0.80
2018-08-14T17:11:44.202Z,0.77
2018-08-14T17:14:13.728Z,0.60
2018-08-14T17:16:43.329Z,1.10
2018-08-14T17:19:13.164Z,0.80
2018-08-14T17:21:41.045Z,0.83
2018-08-14T17:24:10.662Z,1.00
2018-08-14T17:26:40.278Z,0.90
2018-08-14T17:29:10.530Z,0.83
2018-08-14T17:31:40.166Z,0.80
2018-08-14T17:34:09.820Z,0.80
2018-08-14T17:36:39.478Z,0.73
2018-08-14T17:39:09.823Z,0.87
2018-08-14T17:41:39.413Z,0.70
2018-08-14T17:44:09.057Z,0.90
2018-08-14T17:46:38.683Z,0.80
2018-08-14T17:49:08.346Z,0.80
2018-08-14T17:51:38.174Z,0.60
2018-08-14T17:54:07.753Z,0.83
2018-08-14T17:56:37.389Z,0.83
2018-08-14T17:59:07.035Z,0.83
2018-08-14T18:01:36.918Z,0.90
2018-08-14T18:04:06.672Z,0.97
2018-08-14T18:06:36.328Z,0.90
2018-08-14T18:09:09.561Z,1.23
2018-08-14T18:11:39.387Z,1.10
2018-08-14T18:14:09.028Z,1.30
2018-08-14T18:16:38.838Z,1.10
2018-08-14T18:19:08.645Z,1.00
2018-08-14T18:21:38.343Z,1.13
2018-08-14T18:24:08.065Z,1.00
2018-08-14T18:26:37.768Z,1.00
2018-08-14T18:29:07.371Z,0.90
2018-08-14T18:31:37.086Z,1.00
2018-08-14T18:34:06.782Z,0.90
2018-08-14T18:36:36.398Z,1.10
2018-08-14T18:39:08.727Z,1.00
2018-08-14T18:41:38.387Z,1.00
2018-08-14T18:44:07.994Z,0.90
2018-08-14T18:46:37.617Z,0.73
2018-08-14T18:49:07.351Z,1.10
2018-08-14T18:51:36.908Z,1.03
2018-08-14T18:54:06.657Z,1.00
2018-08-14T18:56:36.351Z,0.93
2018-08-14T18:59:06.148Z,0.90
2018-08-14T19:01:35.789Z,0.83
2018-08-14T19:04:05.361Z,1.13
2018-08-14T19:06:35.618Z,0.87
2018-08-14T19:09:06.540Z,1.00
2018-08-14T19:11:36.463Z,1.00
2018-08-14T19:14:06.510Z,1.00
2018-08-14T19:16:36.627Z,1.30
2018-08-14T19:19:06.226Z,0.93
2018-08-14T19:21:35.816Z,1.20
2018-08-14T19:24:05.452Z,1.00
2018-08-14T19:26:35.151Z,1.00
2018-08-14T19:29:04.882Z,0.70
2018-08-14T19:31:34.454Z,0.90
2018-08-14T19:34:04.014Z,0.87
2018-08-14T19:36:33.669Z,1.10
2018-08-14T19:39:03.884Z,1.10
2018-08-14T19:41:33.369Z,1.13
2018-08-14T19:44:02.883Z,1.40
2018-08-14T19:46:33.958Z,1.10
2018-08-14T19:49:03.662Z,1.23
2018-08-14T19:51:33.296Z,1.20
2018-08-14T19:54:02.737Z,1.03
2018-08-14T19:56:32.139Z,0.90
2018-08-14T19:59:02.102Z,1.10
2018-08-14T20:01:31.922Z,1.20
2018-08-14T20:04:01.389Z,1.23
2018-08-14T20:06:30.893Z,1.27
2018-08-14T20:09:00.297Z,1.40
2018-08-14T20:11:30.124Z,1.20
2018-08-14T20:13:59.572Z,1.33
2018-08-14T20:16:28.924Z,1.40
2018-08-14T20:18:58.433Z,1.30
2018-08-14T20:21:27.836Z,1.40
2018-08-14T20:23:57.277Z,1.20
2018-08-14T20:26:26.656Z,1.07
2018-08-14T20:28:56.132Z,1.20
2018-08-14T20:31:25.533Z,1.20
2018-08-14T20:33:55.101Z,1.30
2018-08-14T20:36:24.545Z,1.50
2018-08-14T20:38:53.896Z,1.37
2018-08-14T20:41:23.340Z,1.37
2018-08-14T20:43:52.876Z,1.13
2018-08-14T20:46:22.346Z,1.20
2018-08-14T20:48:51.823Z,1.50
2018-08-14T20:51:21.779Z,1.20
2018-08-14T20:53:51.201Z,1.20
2018-08-14T20:56:20.693Z,1.33
2018-08-14T20:58:50.177Z,1.23
2018-08-14T21:01:19.628Z,1.20
2018-08-14T21:03:48.962Z,1.67
2018-08-14T21:06:18.417Z,1.23
2018-08-14T21:08:47.837Z,1.30
2018-08-14T21:11:17.331Z,1.00
2018-08-14T21:13:46.702Z,1.47
2018-08-14T21:16:21.214Z,1.30
2018-08-14T21:18:50.605Z,1.30
2018-08-14T21:21:20.157Z,1.33
2018-08-14T21:23:49.548Z,1.43
2018-08-14T21:26:19.037Z,1.10
2018-08-14T21:28:48.452Z,1.20
2018-08-14T21:31:18.149Z,1.27
2018-08-14T21:33:48.005Z,1.47
2018-08-14T21:36:17.445Z,1.40
2018-08-14T21:38:46.867Z,1.20
2018-08-14T21:41:16.277Z,1.40
2018-08-14T21:43:45.636Z,1.17
2018-08-14T21:46:14.988Z,1.30
2018-08-14T21:48:44.721Z,1.50
2018-08-14T21:51:14.165Z,1.70
2018-08-14T21:53:43.624Z,1.27
2018-08-14T21:56:12.969Z,1.30
2018-08-14T21:58:42.347Z,1.53
2018-08-14T22:01:12.711Z,1.50
2018-08-14T22:03:43.504Z,1.40
2018-08-14T22:06:13.933Z,1.13
2018-08-14T22:08:43.439Z,1.20
2018-08-14T22:11:12.960Z,1.20
2018-08-14T22:13:42.416Z,1.00
2018-08-14T22:16:11.909Z,1.10
2018-08-14T22:18:41.321Z,1.13
2018-08-14T22:21:10.813Z,1.10
2018-08-14T22:23:40.228Z,1.47
2018-08-14T22:26:10.258Z,1.13
2018-08-14T22:28:39.633Z,1.13
2018-08-14T22:31:09.217Z,1.20
2018-08-14T22:33:38.722Z,1.20
2018-08-14T22:36:08.147Z,1.37
2018-08-14T22:38:37.527Z,1.10
2018-08-14T22:41:06.976Z,1.40
2018-08-14T22:43:36.404Z,1.53
2018-08-14T22:46:05.790Z,1.30
2018-08-14T22:48:35.192Z,1.30
2018-08-14T22:51:04.581Z,1.13
2018-08-14T22:53:34.890Z,1.40
2018-08-14T22:56:04.247Z,1.30
2018-08-14T22:58:33.721Z,1.60
2018-08-14T23:01:03.114Z,1.80
2018-08-14T23:03:32.465Z,1.70
2018-08-14T23:06:01.849Z,1.50
2018-08-14T23:08:31.258Z,1.53
2018-08-14T23:11:00.736Z,1.50
2018-08-14T23:13:30.184Z,1.50
2018-08-14T23:16:04.482Z,1.70
2018-08-14T23:18:35.732Z,1.50
2018-08-14T23:21:05.741Z,1.70
2018-08-14T23:23:35.383Z,1.33
2018-08-14T23:26:04.865Z,1.30
2018-08-14T23:28:34.323Z,2.10
2018-08-14T23:31:03.711Z,1.80
2018-08-14T23:33:33.160Z,1.60
2018-08-14T23:36:02.619Z,1.60
2018-08-14T23:38:32.024Z,1.60
2018-08-14T23:41:01.425Z,1.50
2018-08-14T23:43:30.775Z,1.70
2018-08-14T23:46:00.128Z,1.77
2018-08-14T23:48:29.547Z,1.53
2018-08-14T23:50:58.964Z,1.40
2018-08-14T23:53:28.312Z,1.60
2018-08-14T23:55:57.652Z,1.97
2018-08-14T23:58:26.992Z,1.60
